Time;durP1;ratioP1;P1;durP2;ratioP2;P2;SDS_P1;SDS_P2;PMS_P1;PMS_P2;Temp;Humidity;BMP_temperature;BMP_pressure;BME280_temperature;BME280_humidity;BME280_pressure;Samples;Min_cycle;Max_cycle;Signal;HPM_P1;HPM_P2
2023/12/07 00:01:29;;;;;;;9.10;5.50;;;0.10;99.90;;;0.84;100.00;98428.28;5053276;28;21035;-80
2023/12/07 00:03:58;;;;;;;13.47;6.30;;;0.00;99.90;;;0.82;100.00;98420.69;5054048;28;20463;-79
2023/12/07 00:06:28;;;;;;;14.00;6.63;;;0.00;99.90;;;0.86;100.00;98434.13;5052598;28;20463;-78
2023/12/07 00:08:58;;;;;;;11.43;5.93;;;0.00;99.90;;;0.84;100.00;98439.38;5053333;28;20517;-79
2023/12/07 00:11:26;;;;;;;12.83;5.70;;;0.00;99.90;;;0.84;100.00;98434.25;5050794;28;20529;-79
2023/12/07 00:13:55;;;;;;;11.30;5.90;;;0.00;99.90;;;0.82;100.00;98436.13;5051534;28;20467;-79
2023/12/07 00:16:23;;;;;;;10.20;6.80;;;0.00;99.90;;;0.78;100.00;98439.03;5054764;28;20468;-79
2023/12/07 00:18:51;;;;;;;10.83;6.03;;;-0.10;99.90;;;0.72;100.00;98432.63;5055252;28;20942;-79
2023/12/07 00:21:20;;;;;;;9.20;5.90;;;-0.10;99.90;;;0.72;100.00;98434.38;5056432;28;20470;-80
2023/12/07 00:23:50;;;;;;;10.50;5.77;;;-0.10;99.90;;;0.67;100.00;98447.56;5055618;28;20965;-78
2023/12/07 00:26:18;;;;;;;12.17;6.87;;;-0.20;99.90;;;0.66;100.00;98439.97;5056813;28;20478;-78
2023/12/07 00:28:47;;;;;;;8.00;5.80;;;-0.10;99.90;;;0.69;100.00;98442.31;5056784;28;20838;-80
2023/12/07 00:31:15;;;;;;;8.97;6.00;;;-0.10;99.90;;;0.64;100.00;98445.22;5056836;28;20507;-79
2023/12/07 00:33:45;;;;;;;16.50;6.70;;;0.10;99.90;;;0.61;100.00;98447.22;5056010;28;20984;-79
2023/12/07 00:36:14;;;;;;;12.53;5.40;;;-0.10;99.90;;;0.61;100.00;98447.22;5056677;28;20547;-78
2023/12/07 00:38:42;;;;;;;12.87;6.40;;;-0.20;99.90;;;0.62;100.00;98441.97;5054685;28;20469;-81
2023/12/07 00:41:12;;;;;;;11.10;5.80;;;-0.20;99.90;;;0.58;100.00;98453.41;5054369;28;20462;-79
2023/12/07 00:43:41;;;;;;;10.17;5.97;;;-0.20;99.90;;;0.52;100.00;98446.94;5055713;28;20461;-78
2023/12/07 00:46:09;;;;;;;9.33;5.43;;;-0.10;99.90;;;0.52;100.00;98452.09;5057086;28;20466;-78
2023/12/07 00:48:38;;;;;;;12.50;6.03;;;-0.20;99.90;;;0.50;100.00;98461.69;5057947;28;20458;-79
2023/12/07 00:51:07;;;;;;;10.23;5.27;;;-0.20;99.90;;;0.52;100.00;98459.03;5056469;28;20507;-79
2023/12/07 00:53:35;;;;;;;10.10;5.90;;;-0.30;99.90;;;0.49;100.00;98454.91;5056185;28;20586;-79
2023/12/07 00:56:05;;;;;;;8.43;5.03;;;-0.30;99.90;;;0.47;100.00;98455.97;5058193;28;20473;-79
2023/12/07 00:58:35;;;;;;;17.13;5.47;;;-0.40;99.90;;;0.46;100.00;98460.28;5055352;28;20465;-79
2023/12/07 01:01:04;;;;;;;8.10;5.60;;;-0.30;99.90;;;0.48;100.00;98466.16;5057372;28;20563;-79
2023/12/07 01:03:33;;;;;;;17.43;6.23;;;-0.30;99.90;;;0.48;100.00;98458.44;5051790;28;20470;-79
2023/12/07 01:06:01;;;;;;;11.07;4.97;;;-0.30;99.90;;;0.43;100.00;98446.81;5054392;28;20559;-79
2023/12/07 01:08:30;;;;;;;9.30;5.77;;;-0.40;99.90;;;0.36;100.00;98453.34;5054880;28;20466;-80
2023/12/07 01:10:59;;;;;;;11.70;5.00;;;-0.40;99.90;;;0.40;100.00;98447.88;5054587;28;20549;-78
2023/12/07 01:13:27;;;;;;;12.00;5.80;;;-0.40;99.90;;;0.35;100.00;98452.53;5057344;28;20472;-79
2023/12/07 01:15:57;;;;;;;7.93;5.13;;;-0.40;99.90;;;0.31;100.00;98453.69;5054978;28;20483;-79
2023/12/07 01:18:26;;;;;;;12.10;5.03;;;-0.40;99.90;;;0.28;100.00;98446.19;5056195;28;21030;-79
2023/12/07 01:20:55;;;;;;;8.17;5.80;;;-0.50;99.90;;;0.28;100.00;98450.53;5053527;28;20515;-79
2023/12/07 01:23:26;;;;;;;8.87;5.70;;;-0.50;99.90;;;0.27;100.00;98448.91;5054472;28;20449;-79
2023/12/07 01:25:55;;;;;;;12.30;5.37;;;-0.50;99.90;;;0.24;100.00;98447.38;5054730;28;20463;-79
2023/12/07 01:28:23;;;;;;;7.97;4.90;;;-0.60;99.90;;;0.17;100.00;98440.22;5054022;28;20461;-79
2023/12/07 01:30:52;;;;;;;10.20;5.90;;;-0.60;99.90;;;0.19;100.00;98452.03;5056392;28;20495;-79
2023/12/07 01:33:21;;;;;;;10.43;5.73;;;-0.60;99.90;;;0.22;100.00;98450.97;5054500;28;20467;-79
2023/12/07 01:35:50;;;;;;;11.10;6.50;;;-0.70;99.90;;;0.26;100.00;98458.38;5055841;28;20463;-79
2023/12/07 01:38:19;;;;;;;9.50;5.50;;;-0.60;99.90;;;0.23;100.00;98456.03;5052110;28;20463;-79
2023/12/07 01:40:48;;;;;;;11.90;5.70;;;-0.60;99.90;;;0.16;100.00;98459.97;5053848;28;20498;-80
2023/12/07 01:43:17;;;;;;;10.00;5.60;;;-0.70;99.90;;;0.14;100.00;98458.44;5054802;28;20968;-78
2023/12/07 01:45:45;;;;;;;12.20;5.73;;;-0.70;99.90;;;0.13;100.00;98457.63;5053051;28;20455;-79
2023/12/07 01:48:15;;;;;;;10.13;6.03;;;-0.60;99.90;;;0.13;100.00;98456.81;5054847;28;20529;-79
2023/12/07 01:50:45;;;;;;;7.07;5.10;;;-0.70;99.90;;;0.11;100.00;98458.66;5053153;28;20487;-79
2023/12/07 01:53:15;;;;;;;9.17;6.10;;;-0.70;99.90;;;0.09;100.00;98466.50;5056191;28;20469;-79
2023/12/07 01:55:44;;;;;;;11.83;5.80;;;-0.70;99.90;;;0.05;100.00;98467.63;5053071;28;21104;-79
2023/12/07 01:58:13;;;;;;;8.47;4.53;;;-0.70;99.90;;;0.06;100.00;98474.41;5055438;28;20462;-79
2023/12/07 02:00:43;;;;;;;6.47;4.90;;;-0.80;99.90;;;0.00;100.00;98475.66;5053670;28;20524;-78
2023/12/07 02:03:13;;;;;;;10.50;5.00;;;-0.80;99.90;;;0.00;100.00;98478.25;5055782;28;21188;-79
2023/12/07 02:05:49;;;;;;;7.03;4.60;;;-0.90;99.90;;;0.04;100.00;98476.25;5052794;28;20464;-79
2023/12/07 02:08:18;;;;;;;8.23;5.50;;;-0.80;99.90;;;0.04;100.00;98488.28;5052119;28;20522;-80
2023/12/07 02:10:46;;;;;;;9.67;5.23;;;-0.80;99.90;;;0.06;100.00;98478.75;5053493;28;20470;-79
2023/12/07 02:13:15;;;;;;;12.97;5.80;;;-0.80;99.90;;;0.01;100.00;98481.63;5053738;28;20459;-79
2023/12/07 02:15:44;;;;;;;11.03;5.50;;;-0.80;99.90;;;0.00;100.00;98473.09;5052652;28;20486;-79
2023/12/07 02:18:20;;;;;;;8.13;4.90;;;-0.80;99.90;;;0.00;100.00;98472.31;5053558;28;20478;-79
2023/12/07 02:21:00;;;;;;;11.50;6.00;;;-0.80;99.90;;;0.00;100.00;98473.09;5052969;28;20551;-79
2023/12/07 02:23:30;;;;;;;10.87;5.57;;;-0.80;99.90;;;-0.01;100.00;98474.06;5053138;28;20806;-79
2023/12/07 02:26:21;;;;;;;8.57;4.70;;;-0.90;99.90;;;-0.04;100.00;98488.88;5052914;28;20511;-78
2023/12/07 02:28:52;;;;;;;12.43;5.40;;;-0.90;99.90;;;-0.05;100.00;98490.63;5052507;28;20459;-78
2023/12/07 02:31:20;;;;;;;10.47;5.47;;;-0.90;99.90;;;-0.07;100.00;98496.81;5052765;28;20494;-79
2023/12/07 02:33:50;;;;;;;8.33;5.27;;;-0.90;99.90;;;-0.06;100.00;98493.28;5050887;28;20524;-79
2023/12/07 02:36:25;;;;;;;8.17;5.43;;;-0.90;99.90;;;-0.07;100.00;98492.47;5055093;28;20455;-78
2023/12/07 02:38:58;;;;;;;6.70;4.53;;;-0.90;99.90;;;-0.14;100.00;98500.75;5050896;28;20451;-79
2023/12/07 02:41:28;;;;;;;11.80;5.87;;;-1.00;99.90;;;-0.15;100.00;98499.09;5054138;28;21079;-79
2023/12/07 02:43:58;;;;;;;8.13;4.77;;;-1.00;99.90;;;-0.20;100.00;98499.41;5054381;28;20460;-79
2023/12/07 02:46:27;;;;;;;8.50;5.20;;;-1.10;99.90;;;-0.17;100.00;98501.75;5054162;28;20469;-79
2023/12/07 02:48:58;;;;;;;14.00;5.40;;;-1.00;99.90;;;-0.15;100.00;98488.81;5050553;28;20451;-80
2023/12/07 02:51:26;;;;;;;12.20;5.50;;;-0.90;99.90;;;-0.21;100.00;98494.38;5051068;28;20967;-79
2023/12/07 02:53:55;;;;;;;11.00;5.50;;;-1.10;99.90;;;-0.22;100.00;98493.56;5053118;28;20465;-79
2023/12/07 02:56:23;;;;;;;7.90;5.43;;;-1.10;99.90;;;-0.23;100.00;98485.97;5052360;28;20528;-79
2023/12/07 02:58:51;;;;;;;8.33;4.93;;;-1.10;99.90;;;-0.20;100.00;98480.59;5052255;28;20838;-79
2023/12/07 03:01:21;;;;;;;9.30;4.90;;;-1.00;99.90;;;-0.24;100.00;98485.13;5051436;28;20480;-79
2023/12/07 03:03:50;;;;;;;6.90;4.27;;;-1.10;99.90;;;-0.31;100.00;98483.91;5053266;28;20542;-79
2023/12/07 03:06:19;;;;;;;11.00;5.70;;;-1.20;99.90;;;-0.27;100.00;98482.78;5052110;28;20469;-80
2023/12/07 03:08:48;;;;;;;10.73;5.60;;;-1.00;99.90;;;-0.27;100.00;98479.38;5052540;28;20545;-79
2023/12/07 03:11:16;;;;;;;11.70;5.73;;;-1.10;99.90;;;-0.28;100.00;98481.16;5050113;28;20462;-79
2023/12/07 03:13:45;;;;;;;14.30;5.00;;;-1.00;99.90;;;-0.27;100.00;98489.66;5052728;28;20502;-79
2023/12/07 03:16:13;;;;;;;12.27;5.20;;;-1.10;99.90;;;-0.36;100.00;98486.00;5051817;28;21114;-79
2023/12/07 03:18:43;;;;;;;6.63;4.53;;;-1.20;99.90;;;-0.34;100.00;98491.03;5052587;28;20499;-79
2023/12/07 03:21:12;;;;;;;10.77;5.13;;;-1.20;99.90;;;-0.34;100.00;98488.47;5052922;28;20494;-79
2023/12/07 03:23:40;;;;;;;10.60;6.27;;;-1.20;99.90;;;-0.35;100.00;98491.97;5052420;28;20843;-79
2023/12/07 03:26:08;;;;;;;10.30;5.43;;;-1.20;99.90;;;-0.32;100.00;98491.75;5052835;28;20469;-79
2023/12/07 03:28:37;;;;;;;10.87;5.13;;;-1.20;99.90;;;-0.31;100.00;98485.69;5055400;28;20473;-80
2023/12/07 03:31:06;;;;;;;13.10;5.80;;;-1.10;99.90;;;-0.35;100.00;98482.53;5052007;28;20466;-79
2023/12/07 03:33:34;;;;;;;10.37;5.63;;;-1.20;99.90;;;-0.34;100.00;98483.31;5051849;28;20561;-79
2023/12/07 03:36:05;;;;;;;7.83;4.87;;;-1.20;99.90;;;-0.42;100.00;98480.50;5052455;28;21027;-79
2023/12/07 03:38:34;;;;;;;8.10;5.03;;;-1.30;99.90;;;-0.48;100.00;98486.03;5054238;28;20460;-79
2023/12/07 03:41:02;;;;;;;23.03;6.00;;;-1.40;99.90;;;-0.50;100.00;98488.72;5051199;28;20955;-79
2023/12/07 03:43:31;;;;;;;9.33;5.70;;;-1.40;99.90;;;-0.55;100.00;98478.75;5050343;28;20467;-78
2023/12/07 03:45:59;;;;;;;11.67;5.20;;;-1.40;99.90;;;-0.54;100.00;98475.28;5050877;28;20467;-79
2023/12/07 03:48:28;;;;;;;6.93;4.57;;;-1.40;99.90;;;-0.56;100.00;98484.84;5050176;28;20549;-79
2023/12/07 03:50:56;;;;;;;7.40;4.70;;;-1.40;99.90;;;-0.51;100.00;98485.34;5053756;28;20514;-79
2023/12/07 03:53:27;;;;;;;7.57;5.10;;;-1.40;99.90;;;-0.51;100.00;98489.66;5055491;28;20551;-79
2023/12/07 03:55:56;;;;;;;8.50;4.60;;;-1.30;99.90;;;-0.48;100.00;98492.00;5056446;28;20627;-79
2023/12/07 03:58:25;;;;;;;7.40;5.20;;;-1.20;99.90;;;-0.49;100.00;98494.69;5056118;28;20993;-78
2023/12/07 04:00:54;;;;;;;10.27;5.73;;;-1.20;99.90;;;-0.43;100.00;98491.69;5056222;28;20477;-79
2023/12/07 04:03:22;;;;;;;11.27;5.50;;;-1.20;99.90;;;-0.41;100.00;98497.53;5051886;28;20811;-81
2023/12/07 04:05:51;;;;;;;9.70;5.33;;;-1.10;99.90;;;-0.46;100.00;98497.03;5056404;28;20465;-78
2023/12/07 04:08:20;;;;;;;8.07;4.93;;;-1.00;99.90;;;-0.45;100.00;98496.91;5055946;28;20963;-79
2023/12/07 04:10:50;;;;;;;13.37;6.20;;;-1.10;99.90;;;-0.44;100.00;98503.69;5055546;28;20465;-79
2023/12/07 04:13:18;;;;;;;8.53;6.13;;;-1.20;99.90;;;-0.40;100.00;98501.75;5053492;28;20496;-79
2023/12/07 04:15:47;;;;;;;8.20;4.37;;;-1.20;99.90;;;-0.44;100.00;98502.88;5054576;28;20485;-79
2023/12/07 04:18:15;;;;;;;13.23;5.70;;;-1.10;99.90;;;-0.39;100.00;98506.78;5053540;28;20493;-78
2023/12/07 04:20:44;;;;;;;11.17;6.00;;;-1.00;99.90;;;-0.39;100.00;98495.69;5053830;28;20470;-79
2023/12/07 04:23:13;;;;;;;9.37;5.30;;;-1.10;99.90;;;-0.36;100.00;98496.28;5054523;28;20475;-77
2023/12/07 04:25:41;;;;;;;8.10;4.73;;;-1.10;99.90;;;-0.28;100.00;98498.31;5053208;28;20827;-79
2023/12/07 04:28:11;;;;;;;10.70;5.10;;;-1.00;99.90;;;-0.21;100.00;98494.38;5056983;28;20487;-79
2023/12/07 04:30:40;;;;;;;15.70;5.20;;;-0.90;99.90;;;-0.19;100.00;98500.22;5054306;28;20464;-80
2023/12/07 04:33:08;;;;;;;11.13;5.70;;;-0.90;99.90;;;-0.15;100.00;98499.09;5056149;28;20497;-78
2023/12/07 04:35:37;;;;;;;9.00;4.83;;;-0.80;99.90;;;-0.09;100.00;98503.78;5054836;28;20488;-79
2023/12/07 04:38:05;;;;;;;11.53;4.93;;;-0.80;99.90;;;-0.05;100.00;98495.75;5055617;28;21186;-79
2023/12/07 04:40:34;;;;;;;13.43;5.43;;;-0.70;99.90;;;-0.03;100.00;98504.16;5056052;28;20470;-79
2023/12/07 04:43:02;;;;;;;9.23;5.40;;;-0.70;99.90;;;-0.03;100.00;98496.44;5057536;28;20534;-78
2023/12/07 04:45:32;;;;;;;10.27;4.97;;;-0.70;99.90;;;0.02;100.00;98498.69;5054306;28;20466;-78
2023/12/07 04:48:02;;;;;;;10.53;6.40;;;-0.70;99.90;;;0.06;100.00;98496.72;5053564;28;20497;-79
2023/12/07 04:50:30;;;;;;;7.70;4.77;;;-0.70;99.90;;;0.13;100.00;98505.66;5053935;28;20464;-78
2023/12/07 04:52:59;;;;;;;11.50;6.07;;;-0.60;99.90;;;0.17;100.00;98499.34;5055030;28;20490;-79
2023/12/07 04:55:27;;;;;;;14.33;5.80;;;-0.50;99.90;;;0.17;100.00;98512.22;5057114;28;21240;-79
2023/12/07 04:57:56;;;;;;;13.23;5.50;;;-0.50;99.90;;;0.18;100.00;98506.13;5053935;28;20461;-78
2023/12/07 05:00:24;;;;;;;8.50;5.23;;;-0.50;99.90;;;0.19;100.00;98500.88;5053033;28;20479;-78
2023/12/07 05:02:54;;;;;;;9.50;5.37;;;-0.50;99.90;;;0.22;100.00;98508.38;5053893;28;20508;-79
2023/12/07 05:05:24;;;;;;;7.77;5.30;;;-0.50;99.90;;;0.24;100.00;98505.69;5054414;28;20465;-78
2023/12/07 05:07:52;;;;;;;9.50;5.73;;;-0.40;99.90;;;0.27;100.00;98503.72;5057037;28;20464;-78
2023/12/07 05:10:22;;;;;;;11.00;6.50;;;-0.40;99.90;;;0.33;100.00;98507.59;5054341;28;20508;-78
2023/12/07 05:12:50;;;;;;;9.13;4.70;;;-0.30;99.90;;;0.32;100.00;98514.47;5056523;28;20523;-78
2023/12/07 05:15:19;;;;;;;10.57;6.17;;;-0.40;99.90;;;0.34;100.00;98507.50;5055131;28;20495;-78
2023/12/07 05:17:47;;;;;;;14.63;6.20;;;-0.40;99.90;;;0.36;100.00;98515.06;5053139;28;20486;-78
2023/12/07 05:20:22;;;;;;;16.87;6.53;;;-0.20;99.90;;;0.41;100.00;98516.41;5056174;28;20459;-78
2023/12/07 05:22:50;;;;;;;8.13;5.27;;;-0.30;99.90;;;0.42;100.00;98510.31;5053448;28;20552;-79
2023/12/07 05:25:19;;;;;;;10.97;5.80;;;-0.20;99.90;;;0.43;100.00;98509.38;5054767;28;20472;-79
2023/12/07 05:27:48;;;;;;;20.63;7.20;;;-0.20;99.90;;;0.43;100.00;98516.28;5056185;28;20483;-78
2023/12/07 05:30:17;;;;;;;17.97;6.43;;;-0.30;99.90;;;0.41;100.00;98511.25;5051481;28;20482;-79
2023/12/07 05:32:45;;;;;;;14.77;7.87;;;-0.30;99.90;;;0.47;100.00;98515.94;5052531;28;20460;-77
2023/12/07 05:35:14;;;;;;;14.57;6.37;;;-0.30;99.90;;;0.49;100.00;98519.22;5054761;28;21058;-78
2023/12/07 05:37:43;;;;;;;10.67;6.43;;;-0.30;99.90;;;0.52;100.00;98517.38;5054141;28;20472;-77
2023/12/07 05:40:13;;;;;;;15.53;7.10;;;-0.20;99.90;;;0.56;100.00;98505.88;5053146;28;20470;-78
2023/12/07 05:42:41;;;;;;;21.07;7.20;;;-0.20;99.90;;;0.56;100.00;98505.88;5059119;28;20597;-78
2023/12/07 05:45:11;;;;;;;15.37;6.90;;;-0.20;99.90;;;0.60;100.00;98508.13;5056933;28;20490;-78
2023/12/07 05:47:39;;;;;;;12.30;5.80;;;-0.10;99.90;;;0.65;100.00;98507.81;5057636;28;20468;-78
2023/12/07 05:50:09;;;;;;;11.57;5.73;;;-0.10;99.90;;;0.68;100.00;98505.00;5055338;28;20476;-77
2023/12/07 05:52:38;;;;;;;16.60;6.80;;;0.00;99.90;;;0.69;100.00;98512.63;5057279;28;20472;-77
2023/12/07 05:55:08;;;;;;;10.63;6.50;;;0.00;99.90;;;0.70;100.00;98508.25;5055733;28;20498;-77
2023/12/07 05:57:37;;;;;;;12.20;6.53;;;0.00;99.90;;;0.75;100.00;98512.16;5056540;28;20883;-76
2023/12/07 06:00:09;;;;;;;10.87;6.20;;;0.10;99.90;;;0.77;100.00;98499.97;5056680;28;20522;-77
2023/12/07 06:02:37;;;;;;;24.63;6.97;;;0.10;99.90;;;0.79;100.00;98510.16;5055570;28;20457;-77
2023/12/07 06:05:07;;;;;;;10.43;5.77;;;0.10;99.90;;;0.78;100.00;98519.63;5055634;28;20482;-77
2023/12/07 06:07:36;;;;;;;11.87;6.83;;;0.20;99.90;;;0.80;100.00;98511.81;5056270;28;20457;-77
2023/12/07 06:10:06;;;;;;;9.77;5.50;;;0.10;99.90;;;0.83;100.00;98506.44;5053812;28;20465;-77
2023/12/07 06:12:36;;;;;;;8.70;5.70;;;0.20;99.90;;;0.85;100.00;98520.00;5055266;28;20920;-77
2023/12/07 06:15:06;;;;;;;6.13;4.93;;;0.20;99.90;;;0.89;100.00;98521.41;5052286;28;20515;-77
2023/12/07 06:17:35;;;;;;;9.53;5.90;;;0.20;99.90;;;0.91;100.00;98524.69;5055873;28;20941;-77
2023/12/07 06:20:05;;;;;;;8.07;4.80;;;0.30;99.90;;;0.94;100.00;98521.88;5056452;28;20464;-77
2023/12/07 06:22:33;;;;;;;5.17;3.90;;;0.40;99.90;;;0.94;100.00;98524.44;5055248;28;20457;-77
2023/12/07 06:25:02;;;;;;;8.87;5.07;;;0.40;99.90;;;0.96;100.00;98530.31;5056408;28;20462;-77
2023/12/07 06:27:31;;;;;;;8.20;4.70;;;0.40;99.90;;;0.97;100.00;98550.00;5055399;28;21282;-77
2023/12/07 06:30:01;;;;;;;10.87;5.53;;;0.30;99.90;;;0.92;100.00;98554.66;5055088;28;20466;-77
2023/12/07 06:32:30;;;;;;;8.83;4.80;;;0.40;99.90;;;0.96;100.00;98544.00;5053666;28;20477;-77
2023/12/07 06:34:58;;;;;;;6.37;4.57;;;0.50;99.90;;;0.99;100.00;98537.81;5055407;28;20501;-77
2023/12/07 06:37:27;;;;;;;6.83;4.63;;;0.50;99.90;;;1.00;100.00;98532.56;5053051;28;20471;-77
2023/12/07 06:39:56;;;;;;;5.57;4.40;;;0.40;99.90;;;1.02;100.00;98530.66;5056730;28;20550;-77
2023/12/07 06:42:24;;;;;;;10.13;5.77;;;0.50;99.90;;;1.06;100.00;98536.41;5055939;28;20471;-77
2023/12/07 06:44:53;;;;;;;9.13;4.97;;;0.50;99.90;;;1.07;100.00;98542.38;5055679;28;20503;-78
2023/12/07 06:47:23;;;;;;;8.83;5.20;;;0.50;99.90;;;1.08;100.00;98538.88;5054708;28;20452;-77
2023/12/07 06:49:52;;;;;;;8.90;4.43;;;0.60;99.90;;;1.01;100.00;98533.34;5053168;28;20939;-77
2023/12/07 06:52:21;;;;;;;6.20;4.47;;;0.40;99.90;;;0.98;100.00;98541.31;5053426;28;20837;-77
2023/12/07 06:54:49;;;;;;;7.30;4.93;;;0.30;99.90;;;1.01;100.00;98533.34;5053450;28;20497;-77
2023/12/07 06:57:18;;;;;;;9.10;4.73;;;0.40;99.90;;;1.01;100.00;98533.34;5054536;28;20464;-77
2023/12/07 06:59:47;;;;;;;9.00;4.90;;;0.50;99.90;;;1.01;100.00;98530.78;5055447;28;20476;-77
2023/12/07 07:02:16;;;;;;;7.53;5.57;;;0.40;99.90;;;0.99;100.00;98527.50;5053882;28;20471;-77
2023/12/07 07:04:48;;;;;;;5.30;4.20;;;0.30;99.90;;;0.93;100.00;98515.94;5056511;28;20473;-77
2023/12/07 07:07:17;;;;;;;8.00;5.27;;;0.30;99.90;;;1.00;100.00;98522.25;5054271;28;20545;-77
2023/12/07 07:09:46;;;;;;;8.40;5.33;;;0.40;99.90;;;1.04;100.00;98511.72;5056512;28;20548;-77
2023/12/07 07:12:15;;;;;;;9.97;5.90;;;0.40;99.90;;;1.09;100.00;98502.69;5054566;28;20475;-77
2023/12/07 07:14:43;;;;;;;8.20;5.27;;;0.50;99.90;;;1.07;100.00;98506.34;5055030;28;20513;-77
2023/12/07 07:17:12;;;;;;;7.40;5.20;;;0.40;99.90;;;1.02;100.00;98516.97;5055192;28;20476;-77
2023/12/07 07:19:41;;;;;;;8.37;5.10;;;0.30;99.90;;;1.04;100.00;98515.13;5054246;28;20831;-77
2023/12/07 07:22:11;;;;;;;10.80;6.20;;;0.40;99.90;;;1.07;100.00;98516.63;5053409;28;20481;-77
2023/12/07 07:24:39;;;;;;;8.27;5.70;;;0.40;99.90;;;1.11;100.00;98518.06;5056245;28;20463;-77
2023/12/07 07:27:08;;;;;;;8.73;5.50;;;0.40;99.90;;;1.10;100.00;98513.81;5056245;28;20494;-77
2023/12/07 07:29:36;;;;;;;11.77;5.90;;;0.50;99.90;;;1.10;100.00;98514.66;5053511;28;20468;-78
2023/12/07 07:32:06;;;;;;;8.70;5.37;;;0.60;99.90;;;1.12;100.00;98510.19;5058000;28;20560;-78
2023/12/07 07:34:35;;;;;;;7.03;4.43;;;0.60;99.90;;;1.13;100.00;98498.13;5053947;28;20591;-77
2023/12/07 07:37:04;;;;;;;10.07;5.93;;;0.50;99.90;;;1.13;100.00;98496.38;5056435;28;20515;-77
2023/12/07 07:39:34;;;;;;;9.50;5.90;;;0.60;99.90;;;1.17;100.00;98491.81;5054640;28;20540;-77
2023/12/07 07:42:04;;;;;;;13.47;6.10;;;0.50;99.90;;;1.15;100.00;98499.66;5055124;28;20468;-77
2023/12/07 07:44:33;;;;;;;11.20;6.07;;;0.40;99.90;;;1.13;100.00;98504.13;5055198;28;20560;-78
2023/12/07 07:47:01;;;;;;;8.30;5.53;;;0.50;99.90;;;1.13;100.00;98493.81;5053661;28;20658;-77
2023/12/07 07:49:30;;;;;;;11.83;6.30;;;0.50;99.90;;;1.12;100.00;98494.75;5053186;28;20466;-77
2023/12/07 07:51:58;;;;;;;9.90;5.77;;;0.40;99.90;;;1.05;100.00;98493.56;5053199;28;20998;-78
2023/12/07 07:54:27;;;;;;;8.83;5.50;;;0.40;99.90;;;1.05;100.00;98493.56;5055604;28;20544;-77
2023/12/07 07:56:58;;;;;;;10.13;6.43;;;0.30;99.90;;;1.07;100.00;98501.19;5057486;28;20540;-77
2023/12/07 07:59:26;;;;;;;12.10;5.70;;;0.40;99.90;;;1.08;100.00;98502.84;5053660;28;20469;-77
2023/12/07 08:01:55;;;;;;;10.10;5.47;;;0.30;99.90;;;1.07;100.00;98496.88;5054759;28;20476;-77
2023/12/07 08:04:24;;;;;;;9.60;5.90;;;0.30;99.90;;;1.07;100.00;98494.28;5053845;28;20460;-77
2023/12/07 08:06:52;;;;;;;12.20;6.20;;;0.30;99.90;;;1.09;100.00;98489.00;5053975;28;22290;-78
2023/12/07 08:09:21;;;;;;;10.13;5.63;;;0.50;99.90;;;1.11;100.00;98493.09;5055735;28;20506;-77
2023/12/07 08:11:49;;;;;;;7.63;4.63;;;0.50;99.90;;;1.09;100.00;98494.97;5051606;28;20856;-77
2023/12/07 08:14:19;;;;;;;7.00;4.90;;;0.40;99.90;;;1.05;100.00;98488.41;5052677;28;20479;-77
2023/12/07 08:16:48;;;;;;;6.27;5.10;;;0.40;99.90;;;1.01;100.00;98487.84;5054549;28;20464;-77
2023/12/07 08:19:16;;;;;;;10.20;5.97;;;0.30;99.90;;;1.08;100.00;98485.59;5053898;28;20490;-78
2023/12/07 08:21:45;;;;;;;11.80;6.40;;;0.40;99.90;;;1.10;100.00;98477.78;5053118;28;20988;-77
2023/12/07 08:24:14;;;;;;;9.50;6.20;;;0.30;99.90;;;1.13;100.00;98485.25;5052138;28;20465;-77
2023/12/07 08:26:42;;;;;;;10.40;6.03;;;0.40;99.90;;;1.15;100.00;98479.06;5054051;28;20475;-77
2023/12/07 08:29:11;;;;;;;8.03;5.37;;;0.40;99.90;;;1.07;100.00;98481.41;5054192;28;20857;-77
2023/12/07 08:31:41;;;;;;;7.97;4.40;;;0.30;99.90;;;0.93;100.00;98484.22;5055033;28;20550;-77
2023/12/07 08:34:10;;;;;;;7.40;4.20;;;0.20;99.90;;;0.98;100.00;98482.09;5054671;28;20474;-77
2023/12/07 08:36:39;;;;;;;8.30;5.20;;;0.20;99.90;;;1.02;100.00;98488.66;5054390;28;20940;-76
2023/12/07 08:39:09;;;;;;;8.87;5.20;;;0.30;99.90;;;1.07;100.00;98484.00;5058713;28;20475;-77
2023/12/07 08:41:38;;;;;;;9.20;5.83;;;0.30;99.90;;;1.03;100.00;98485.16;5059132;28;20460;-77
2023/12/07 08:44:07;;;;;;;10.17;6.03;;;0.30;99.90;;;1.09;100.00;98487.25;5059253;28;20464;-77
2023/12/07 08:46:36;;;;;;;11.90;6.20;;;0.50;99.90;;;1.02;100.00;98488.66;5057901;28;20468;-77
2023/12/07 08:49:06;;;;;;;13.83;6.67;;;0.30;99.90;;;1.04;100.00;98491.94;5058797;28;20469;-77
2023/12/07 08:51:35;;;;;;;9.67;6.47;;;0.30;99.90;;;1.03;100.00;98485.16;5059556;28;20466;-77
2023/12/07 08:54:05;;;;;;;11.07;6.13;;;0.30;99.90;;;1.04;100.00;98497.09;5058927;28;20476;-77
2023/12/07 08:56:34;;;;;;;9.90;5.53;;;0.30;99.90;;;1.06;100.00;98495.22;5059374;28;20582;-77
2023/12/07 08:59:03;;;;;;;9.67;5.40;;;0.40;99.90;;;1.10;100.00;98496.63;5056518;28;20955;-77
2023/12/07 09:01:33;;;;;;;13.53;6.90;;;0.50;99.90;;;1.14;100.00;98489.50;5059474;28;20464;-78
2023/12/07 09:04:02;;;;;;;12.40;5.97;;;0.60;99.90;;;1.17;100.00;98492.66;5057310;28;20547;-78
2023/12/07 09:06:33;;;;;;;11.80;5.70;;;0.50;99.90;;;1.19;100.00;98483.03;5058342;28;20615;-77
2023/12/07 09:09:02;;;;;;;10.33;6.17;;;0.50;99.90;;;1.23;100.00;98471.56;5056584;28;20463;-77
2023/12/07 09:11:31;;;;;;;12.93;7.10;;;0.50;99.90;;;1.30;100.00;98477.06;5056830;28;20474;-77
2023/12/07 09:14:00;;;;;;;11.83;6.33;;;0.60;99.90;;;1.33;100.00;98480.22;5057025;28;20517;-77
2023/12/07 09:16:30;;;;;;;9.37;5.50;;;0.70;99.90;;;1.35;100.00;98480.13;5057026;28;20499;-77
2023/12/07 09:18:59;;;;;;;11.30;6.27;;;0.90;99.90;;;1.36;100.00;98472.25;5055680;28;20481;-77
2023/12/07 09:21:26;;;;;;;10.37;6.47;;;0.90;99.90;;;1.43;100.00;98483.72;5056304;28;20468;-77
2023/12/07 09:23:56;;;;;;;12.40;6.53;;;0.70;99.90;;;1.45;100.00;98483.63;5054121;28;20463;-77
2023/12/07 09:26:25;;;;;;;8.17;4.80;;;0.80;99.90;;;1.40;100.00;98489.13;5057298;28;20455;-78
2023/12/07 09:28:53;;;;;;;10.13;5.50;;;0.80;99.90;;;1.32;100.00;98488.88;5057588;28;20457;-77
2023/12/07 09:31:22;;;;;;;6.60;4.50;;;0.80;99.90;;;1.33;100.00;98484.56;5057642;28;20519;-77
2023/12/07 09:33:52;;;;;;;7.07;4.33;;;0.70;99.90;;;1.33;100.00;98472.50;5058425;28;20464;-77
2023/12/07 09:36:23;;;;;;;7.63;4.73;;;0.70;99.90;;;1.36;100.00;98469.69;5057128;28;20524;-78
2023/12/07 09:38:52;;;;;;;8.37;5.10;;;0.70;99.90;;;1.40;100.00;98465.09;5056914;28;20465;-77
2023/12/07 09:41:24;;;;;;;6.40;4.73;;;0.80;99.90;;;1.42;100.00;98460.69;5056248;28;20468;-77
2023/12/07 09:43:53;;;;;;;9.00;5.60;;;1.00;99.90;;;1.40;100.00;98473.66;5056186;28;20500;-78
2023/12/07 09:46:21;;;;;;;7.90;4.70;;;1.00;99.90;;;1.45;100.00;98465.59;5057488;28;20458;-77
2023/12/07 09:48:50;;;;;;;11.20;5.13;;;0.90;99.90;;;1.44;100.00;98475.06;5056328;28;20550;-78
2023/12/07 09:51:20;;;;;;;7.03;4.57;;;0.80;99.90;;;1.44;100.00;98474.25;5055226;28;20555;-77
2023/12/07 09:53:54;;;;;;;6.33;4.37;;;0.80;99.90;;;1.35;100.00;98475.78;5057533;28;20479;-77
2023/12/07 09:56:24;;;;;;;6.97;4.33;;;0.70;99.90;;;1.32;100.00;98476.00;5055413;28;20487;-78
2023/12/07 09:58:53;;;;;;;6.10;4.60;;;0.60;99.90;;;1.34;100.00;98481.88;5055824;28;20471;-77
2023/12/07 10:01:21;;;;;;;6.50;4.47;;;0.60;99.90;;;1.38;100.00;98472.16;5056586;28;20466;-77
2023/12/07 10:03:50;;;;;;;6.30;4.77;;;0.80;99.90;;;1.40;100.00;98472.84;5057275;28;20456;-77
2023/12/07 10:06:19;;;;;;;5.97;3.87;;;1.00;99.90;;;1.41;100.00;98479.63;5056545;28;20816;-77
2023/12/07 10:08:48;;;;;;;5.67;3.83;;;1.00;99.90;;;1.43;100.00;98468.25;5056081;28;20472;-77
2023/12/07 10:11:18;;;;;;;5.57;4.13;;;1.10;99.90;;;1.45;100.00;98461.25;5055478;28;20548;-77
2023/12/07 10:13:48;;;;;;;6.30;4.13;;;0.90;99.90;;;1.48;100.00;98455.84;5055598;28;20518;-77
2023/12/07 10:16:18;;;;;;;12.47;5.93;;;0.90;99.90;;;1.55;100.00;98457.94;5055140;28;20495;-77
2023/12/07 10:18:49;;;;;;;12.63;4.90;;;0.90;99.90;;;1.57;100.00;98459.44;5052878;28;20464;-77
2023/12/07 10:21:33;;;;;;;8.23;4.70;;;1.00;99.90;;;1.63;100.00;98460.75;5054671;28;20465;-77
2023/12/07 10:24:02;;;;;;;7.43;4.97;;;1.00;99.90;;;1.65;100.00;98449.38;5054062;28;20471;-77
2023/12/07 10:26:31;;;;;;;9.13;5.23;;;1.00;99.90;;;1.69;100.00;98444.78;5055377;28;20464;-77